sensor_id;sensor_type;location;lat;lon;timestamp;P1;durP1;ratioP1;P2;durP2;ratioP2
80567;SDS011;69922;45.656;25.586;2023-08-24T00:00:25;12.20;;;8.50;;
80567;SDS011;69922;45.656;25.586;2023-08-24T00:01:48;11.10;;;8.00;;
80567;SDS011;69922;45.656;25.586;2023-08-24T00:02:52;11.90;;;8.70;;
80567;SDS011;69922;45.656;25.586;2023-08-24T00:03:55;12.10;;;8.30;;
80567;SDS011;69922;45.656;25.586;2023-08-24T00:04:59;13.50;;;8.30;;
80567;SDS011;69922;45.656;25.586;2023-08-24T00:06:02;12.70;;;9.00;;
80567;SDS011;69922;45.656;25.586;2023-08-24T00:07:06;13.70;;;8.50;;
80567;SDS011;69922;45.656;25.586;2023-08-24T00:08:10;10.70;;;8.50;;
80567;SDS011;69922;45.656;25.586;2023-08-24T00:09:14;11.90;;;8.90;;
80567;SDS011;69922;45.656;25.586;2023-08-24T00:10:17;12.40;;;8.00;;
80567;SDS011;69922;45.656;25.586;2023-08-24T00:11:21;13.40;;;8.00;;
80567;SDS011;69922;45.656;25.586;2023-08-24T00:12:25;12.40;;;7.80;;
80567;SDS011;69922;45.656;25.586;2023-08-24T00:13:28;11.00;;;8.60;;
80567;SDS011;69922;45.656;25.586;2023-08-24T00:14:32;11.90;;;8.20;;
80567;SDS011;69922;45.656;25.586;2023-08-24T00:15:36;12.80;;;8.40;;
80567;SDS011;69922;45.656;25.586;2023-08-24T00:16:39;10.80;;;9.10;;
80567;SDS011;69922;45.656;25.586;2023-08-24T00:17:43;13.60;;;8.50;;
80567;SDS011;69922;45.656;25.586;2023-08-24T00:18:47;13.20;;;8.70;;
80567;SDS011;69922;45.656;25.586;2023-08-24T00:19:51;11.20;;;8.50;;
80567;SDS011;69922;45.656;25.586;2023-08-24T00:20:55;10.90;;;8.10;;
80567;SDS011;69922;45.656;25.586;2023-08-24T00:21:58;11.50;;;7.50;;
80567;SDS011;69922;45.656;25.586;2023-08-24T00:23:03;12.10;;;7.40;;
80567;SDS011;69922;45.656;25.586;2023-08-24T00:24:07;10.70;;;7.40;;
80567;SDS011;69922;45.656;25.586;2023-08-24T00:25:10;9.70;;;7.20;;
80567;SDS011;69922;45.656;25.586;2023-08-24T00:26:14;11.10;;;6.90;;
80567;SDS011;69922;45.656;25.586;2023-08-24T00:27:20;10.60;;;6.90;;
80567;SDS011;69922;45.656;25.586;2023-08-24T00:28:24;9.40;;;6.80;;
80567;SDS011;69922;45.656;25.586;2023-08-24T00:29:28;7.60;;;6.30;;
80567;SDS011;69922;45.656;25.586;2023-08-24T00:30:32;9.30;;;6.40;;
80567;SDS011;69922;45.656;25.586;2023-08-24T00:31:36;10.40;;;6.50;;
80567;SDS011;69922;45.656;25.586;2023-08-24T00:32:40;11.10;;;6.40;;
80567;SDS011;69922;45.656;25.586;2023-08-24T00:33:44;7.80;;;6.30;;
80567;SDS011;69922;45.656;25.586;2023-08-24T00:34:48;10.10;;;6.50;;
80567;SDS011;69922;45.656;25.586;2023-08-24T00:35:51;10.60;;;7.60;;
80567;SDS011;69922;45.656;25.586;2023-08-24T00:36:55;9.50;;;7.40;;
80567;SDS011;69922;45.656;25.586;2023-08-24T00:37:59;8.90;;;7.10;;
80567;SDS011;69922;45.656;25.586;2023-08-24T00:39:02;13.30;;;7.80;;
80567;SDS011;69922;45.656;25.586;2023-08-24T00:40:08;11.90;;;7.40;;
80567;SDS011;69922;45.656;25.586;2023-08-24T00:41:13;9.80;;;6.80;;
80567;SDS011;69922;45.656;25.586;2023-08-24T00:42:17;11.40;;;7.30;;
80567;SDS011;69922;45.656;25.586;2023-08-24T00:43:21;7.60;;;6.60;;
80567;SDS011;69922;45.656;25.586;2023-08-24T00:44:33;10.00;;;7.00;;
80567;SDS011;69922;45.656;25.586;2023-08-24T00:45:37;11.60;;;7.10;;
80567;SDS011;69922;45.656;25.586;2023-08-24T00:46:41;9.40;;;6.50;;
80567;SDS011;69922;45.656;25.586;2023-08-24T00:47:45;10.20;;;6.70;;
80567;SDS011;69922;45.656;25.586;2023-08-24T00:48:51;7.80;;;5.40;;
80567;SDS011;69922;45.656;25.586;2023-08-24T00:49:55;9.70;;;6.80;;
80567;SDS011;69922;45.656;25.586;2023-08-24T00:50:59;8.30;;;6.60;;
80567;SDS011;69922;45.656;25.586;2023-08-24T00:52:04;9.60;;;7.00;;
80567;SDS011;69922;45.656;25.586;2023-08-24T00:53:09;9.20;;;7.30;;
80567;SDS011;69922;45.656;25.586;2023-08-24T00:54:12;10.10;;;7.40;;
80567;SDS011;69922;45.656;25.586;2023-08-24T00:55:16;10.20;;;7.10;;
80567;SDS011;69922;45.656;25.586;2023-08-24T00:56:20;11.40;;;7.10;;
80567;SDS011;69922;45.656;25.586;2023-08-24T00:57:26;13.20;;;7.10;;
80567;SDS011;69922;45.656;25.586;2023-08-24T00:58:31;8.50;;;7.10;;
80567;SDS011;69922;45.656;25.586;2023-08-24T00:59:36;12.20;;;7.30;;
80567;SDS011;69922;45.656;25.586;2023-08-24T01:00:40;9.90;;;7.20;;
80567;SDS011;69922;45.656;25.586;2023-08-24T01:01:45;8.90;;;6.80;;
80567;SDS011;69922;45.656;25.586;2023-08-24T01:02:51;8.60;;;6.50;;
80567;SDS011;69922;45.656;25.586;2023-08-24T01:03:55;10.60;;;7.10;;
80567;SDS011;69922;45.656;25.586;2023-08-24T01:04:59;10.60;;;6.80;;
80567;SDS011;69922;45.656;25.586;2023-08-24T01:06:03;8.80;;;7.10;;
80567;SDS011;69922;45.656;25.586;2023-08-24T01:07:06;7.60;;;6.10;;
80567;SDS011;69922;45.656;25.586;2023-08-24T01:08:11;8.50;;;6.70;;
80567;SDS011;69922;45.656;25.586;2023-08-24T01:09:15;9.20;;;6.70;;
80567;SDS011;69922;45.656;25.586;2023-08-24T01:10:19;9.20;;;8.20;;
80567;SDS011;69922;45.656;25.586;2023-08-24T01:11:25;9.80;;;6.70;;
80567;SDS011;69922;45.656;25.586;2023-08-24T01:12:37;13.20;;;7.60;;
80567;SDS011;69922;45.656;25.586;2023-08-24T01:13:54;13.50;;;7.70;;
80567;SDS011;69922;45.656;25.586;2023-08-24T01:15:09;10.70;;;6.80;;
80567;SDS011;69922;45.656;25.586;2023-08-24T01:16:18;9.80;;;7.00;;
80567;SDS011;69922;45.656;25.586;2023-08-24T01:17:29;11.90;;;7.40;;
80567;SDS011;69922;45.656;25.586;2023-08-24T01:18:35;10.80;;;6.90;;
80567;SDS011;69922;45.656;25.586;2023-08-24T01:19:41;12.00;;;7.40;;
80567;SDS011;69922;45.656;25.586;2023-08-24T01:20:46;9.50;;;7.20;;
80567;SDS011;69922;45.656;25.586;2023-08-24T01:21:51;8.20;;;6.50;;
80567;SDS011;69922;45.656;25.586;2023-08-24T01:23:02;10.60;;;7.10;;
80567;SDS011;69922;45.656;25.586;2023-08-24T01:24:12;11.20;;;6.70;;
80567;SDS011;69922;45.656;25.586;2023-08-24T01:25:24;9.90;;;7.00;;
80567;SDS011;69922;45.656;25.586;2023-08-24T01:26:36;10.10;;;6.70;;
80567;SDS011;69922;45.656;25.586;2023-08-24T01:27:41;12.30;;;7.60;;
80567;SDS011;69922;45.656;25.586;2023-08-24T01:28:46;10.70;;;7.90;;
80567;SDS011;69922;45.656;25.586;2023-08-24T01:29:50;9.40;;;7.60;;
80567;SDS011;69922;45.656;25.586;2023-08-24T01:30:55;9.90;;;7.50;;
80567;SDS011;69922;45.656;25.586;2023-08-24T01:31:59;10.60;;;7.40;;
80567;SDS011;69922;45.656;25.586;2023-08-24T01:33:03;9.00;;;7.00;;
80567;SDS011;69922;45.656;25.586;2023-08-24T01:34:07;8.90;;;6.80;;
80567;SDS011;69922;45.656;25.586;2023-08-24T01:35:11;8.10;;;6.50;;
80567;SDS011;69922;45.656;25.586;2023-08-24T01:36:15;7.40;;;6.60;;
80567;SDS011;69922;45.656;25.586;2023-08-24T01:37:20;8.70;;;7.40;;
80567;SDS011;69922;45.656;25.586;2023-08-24T01:38:23;10.10;;;7.20;;
80567;SDS011;69922;45.656;25.586;2023-08-24T01:39:28;9.10;;;6.40;;
80567;SDS011;69922;45.656;25.586;2023-08-24T01:40:39;8.90;;;7.50;;
80567;SDS011;69922;45.656;25.586;2023-08-24T01:41:52;8.90;;;7.20;;
80567;SDS011;69922;45.656;25.586;2023-08-24T01:42:59;9.20;;;6.70;;
80567;SDS011;69922;45.656;25.586;2023-08-24T01:44:07;10.20;;;7.60;;
80567;SDS011;69922;45.656;25.586;2023-08-24T01:45:14;11.60;;;8.50;;
80567;SDS011;69922;45.656;25.586;2023-08-24T01:46:21;12.10;;;8.70;;
80567;SDS011;69922;45.656;25.586;2023-08-24T01:47:27;11.20;;;8.50;;
80567;SDS011;69922;45.656;25.586;2023-08-24T01:48:32;12.50;;;8.50;;
80567;SDS011;69922;45.656;25.586;2023-08-24T01:49:37;13.30;;;9.00;;
80567;SDS011;69922;45.656;25.586;2023-08-24T01:50:43;11.50;;;8.60;;
80567;SDS011;69922;45.656;25.586;2023-08-24T01:51:48;12.40;;;8.00;;
80567;SDS011;69922;45.656;25.586;2023-08-24T01:52:53;13.20;;;8.60;;
80567;SDS011;69922;45.656;25.586;2023-08-24T01:53:57;11.20;;;8.40;;
80567;SDS011;69922;45.656;25.586;2023-08-24T01:55:01;13.60;;;8.90;;
80567;SDS011;69922;45.656;25.586;2023-08-24T01:56:08;10.10;;;8.10;;
80567;SDS011;69922;45.656;25.586;2023-08-24T01:57:13;13.40;;;9.10;;
80567;SDS011;69922;45.656;25.586;2023-08-24T01:58:17;13.00;;;8.20;;
80567;SDS011;69922;45.656;25.586;2023-08-24T01:59:20;13.70;;;9.30;;
80567;SDS011;69922;45.656;25.586;2023-08-24T02:00:24;13.70;;;9.80;;
80567;SDS011;69922;45.656;25.586;2023-08-24T02:01:29;12.40;;;8.50;;
80567;SDS011;69922;45.656;25.586;2023-08-24T02:02:34;16.20;;;9.10;;
80567;SDS011;69922;45.656;25.586;2023-08-24T02:03:38;13.70;;;8.70;;
80567;SDS011;69922;45.656;25.586;2023-08-24T02:04:43;12.60;;;7.90;;
80567;SDS011;69922;45.656;25.586;2023-08-24T02:05:46;13.90;;;8.80;;
80567;SDS011;69922;45.656;25.586;2023-08-24T02:06:50;12.00;;;8.80;;
80567;SDS011;69922;45.656;25.586;2023-08-24T02:07:53;13.00;;;8.70;;
80567;SDS011;69922;45.656;25.586;2023-08-24T02:08:58;11.20;;;8.70;;
80567;SDS011;69922;45.656;25.586;2023-08-24T02:10:02;11.90;;;8.40;;
80567;SDS011;69922;45.656;25.586;2023-08-24T02:11:06;10.30;;;8.50;;
80567;SDS011;69922;45.656;25.586;2023-08-24T02:12:10;11.40;;;8.00;;
80567;SDS011;69922;45.656;25.586;2023-08-24T02:13:14;12.70;;;8.10;;
80567;SDS011;69922;45.656;25.586;2023-08-24T02:14:18;12.50;;;8.90;;
80567;SDS011;69922;45.656;25.586;2023-08-24T02:15:21;13.00;;;8.80;;
80567;SDS011;69922;45.656;25.586;2023-08-24T02:16:25;14.80;;;9.20;;
80567;SDS011;69922;45.656;25.586;2023-08-24T02:17:29;13.60;;;10.10;;
80567;SDS011;69922;45.656;25.586;2023-08-24T02:18:33;15.10;;;9.60;;
80567;SDS011;69922;45.656;25.586;2023-08-24T02:19:36;14.50;;;10.50;;
80567;SDS011;69922;45.656;25.586;2023-08-24T02:20:40;15.40;;;11.00;;
80567;SDS011;69922;45.656;25.586;2023-08-24T02:21:43;14.40;;;9.80;;
80567;SDS011;69922;45.656;25.586;2023-08-24T02:22:46;15.10;;;10.10;;
80567;SDS011;69922;45.656;25.586;2023-08-24T02:23:50;15.90;;;9.50;;
80567;SDS011;69922;45.656;25.586;2023-08-24T02:24:54;15.90;;;10.50;;
80567;SDS011;69922;45.656;25.586;2023-08-24T02:25:57;14.80;;;11.30;;
80567;SDS011;69922;45.656;25.586;2023-08-24T02:27:02;14.60;;;10.20;;
80567;SDS011;69922;45.656;25.586;2023-08-24T02:28:06;14.00;;;10.20;;
80567;SDS011;69922;45.656;25.586;2023-08-24T02:29:10;13.30;;;10.00;;
80567;SDS011;69922;45.656;25.586;2023-08-24T02:30:14;12.60;;;10.20;;
80567;SDS011;69922;45.656;25.586;2023-08-24T02:31:18;14.00;;;9.90;;
80567;SDS011;69922;45.656;25.586;2023-08-24T02:32:22;14.30;;;9.80;;
80567;SDS011;69922;45.656;25.586;2023-08-24T02:33:26;13.30;;;10.40;;
80567;SDS011;69922;45.656;25.586;2023-08-24T02:34:29;12.80;;;9.60;;
80567;SDS011;69922;45.656;25.586;2023-08-24T02:35:33;13.00;;;9.00;;
80567;SDS011;69922;45.656;25.586;2023-08-24T02:36:37;13.00;;;9.80;;
80567;SDS011;69922;45.656;25.586;2023-08-24T02:37:41;12.60;;;10.10;;
80567;SDS011;69922;45.656;25.586;2023-08-24T02:38:44;12.70;;;8.90;;
80567;SDS011;69922;45.656;25.586;2023-08-24T02:39:49;11.80;;;8.80;;
80567;SDS011;69922;45.656;25.586;2023-08-24T02:41:00;15.60;;;9.60;;
80567;SDS011;69922;45.656;25.586;2023-08-24T02:42:05;15.60;;;8.70;;
80567;SDS011;69922;45.656;25.586;2023-08-24T02:43:09;12.70;;;9.50;;
80567;SDS011;69922;45.656;25.586;2023-08-24T02:44:13;12.00;;;9.70;;
80567;SDS011;69922;45.656;25.586;2023-08-24T02:45:17;12.60;;;8.60;;
80567;SDS011;69922;45.656;25.586;2023-08-24T02:46:20;13.20;;;8.90;;
80567;SDS011;69922;45.656;25.586;2023-08-24T02:47:24;13.70;;;8.70;;
80567;SDS011;69922;45.656;25.586;2023-08-24T02:48:27;14.40;;;9.90;;
80567;SDS011;69922;45.656;25.586;2023-08-24T02:49:31;11.40;;;8.30;;
80567;SDS011;69922;45.656;25.586;2023-08-24T02:50:34;14.50;;;8.40;;
80567;SDS011;69922;45.656;25.586;2023-08-24T02:51:38;13.70;;;9.30;;
80567;SDS011;69922;45.656;25.586;2023-08-24T02:52:41;15.70;;;8.70;;
80567;SDS011;69922;45.656;25.586;2023-08-24T02:53:44;13.30;;;9.50;;
80567;SDS011;69922;45.656;25.586;2023-08-24T02:54:47;17.80;;;9.40;;
80567;SDS011;69922;45.656;25.586;2023-08-24T02:55:51;14.40;;;9.50;;
80567;SDS011;69922;45.656;25.586;2023-08-24T02:56:55;12.30;;;8.60;;
80567;SDS011;69922;45.656;25.586;2023-08-24T02:57:58;14.00;;;8.60;;
80567;SDS011;69922;45.656;25.586;2023-08-24T02:59:02;14.80;;;9.60;;
80567;SDS011;69922;45.656;25.586;2023-08-24T03:00:13;12.90;;;9.00;;
80567;SDS011;69922;45.656;25.586;2023-08-24T03:01:16;13.50;;;8.70;;
80567;SDS011;69922;45.656;25.586;2023-08-24T03:02:20;16.00;;;9.20;;
80567;SDS011;69922;45.656;25.586;2023-08-24T03:03:23;14.00;;;8.70;;
80567;SDS011;69922;45.656;25.586;2023-08-24T03:04:27;18.00;;;9.70;;
80567;SDS011;69922;45.656;25.586;2023-08-24T03:05:31;15.30;;;8.80;;
80567;SDS011;69922;45.656;25.586;2023-08-24T03:06:34;17.90;;;9.50;;
80567;SDS011;69922;45.656;25.586;2023-08-24T03:07:38;17.50;;;9.80;;
80567;SDS011;69922;45.656;25.586;2023-08-24T03:08:41;12.70;;;9.40;;
80567;SDS011;69922;45.656;25.586;2023-08-24T03:09:44;14.50;;;9.70;;
80567;SDS011;69922;45.656;25.586;2023-08-24T03:10:48;15.30;;;9.90;;
80567;SDS011;69922;45.656;25.586;2023-08-24T03:11:51;16.30;;;9.30;;
80567;SDS011;69922;45.656;25.586;2023-08-24T03:12:55;12.90;;;8.90;;
80567;SDS011;69922;45.656;25.586;2023-08-24T03:13:58;13.10;;;8.70;;
80567;SDS011;69922;45.656;25.586;2023-08-24T03:15:01;13.00;;;9.00;;
80567;SDS011;69922;45.656;25.586;2023-08-24T03:16:06;13.90;;;9.70;;
80567;SDS011;69922;45.656;25.586;2023-08-24T03:17:10;16.80;;;9.60;;
80567;SDS011;69922;45.656;25.586;2023-08-24T03:18:15;16.40;;;10.40;;
80567;SDS011;69922;45.656;25.586;2023-08-24T03:19:19;14.80;;;9.10;;
80567;SDS011;69922;45.656;25.586;2023-08-24T03:20:22;14.60;;;9.50;;
80567;SDS011;69922;45.656;25.586;2023-08-24T03:21:26;14.10;;;9.20;;
80567;SDS011;69922;45.656;25.586;2023-08-24T03:22:29;13.50;;;9.30;;
80567;SDS011;69922;45.656;25.586;2023-08-24T03:23:33;13.20;;;8.70;;
80567;SDS011;69922;45.656;25.586;2023-08-24T03:24:36;13.00;;;9.50;;
80567;SDS011;69922;45.656;25.586;2023-08-24T03:25:40;13.10;;;9.60;;
80567;SDS011;69922;45.656;25.586;2023-08-24T03:26:45;11.40;;;9.00;;
80567;SDS011;69922;45.656;25.586;2023-08-24T03:27:49;14.20;;;9.50;;
80567;SDS011;69922;45.656;25.586;2023-08-24T03:28:53;12.10;;;8.90;;
80567;SDS011;69922;45.656;25.586;2023-08-24T03:29:56;14.80;;;9.20;;
80567;SDS011;69922;45.656;25.586;2023-08-24T03:31:00;12.40;;;8.50;;
80567;SDS011;69922;45.656;25.586;2023-08-24T03:32:05;12.50;;;8.80;;
80567;SDS011;69922;45.656;25.586;2023-08-24T03:33:09;12.50;;;9.50;;
80567;SDS011;69922;45.656;25.586;2023-08-24T03:34:13;14.90;;;8.90;;
80567;SDS011;69922;45.656;25.586;2023-08-24T03:35:18;13.50;;;8.10;;
80567;SDS011;69922;45.656;25.586;2023-08-24T03:36:23;12.20;;;8.10;;
80567;SDS011;69922;45.656;25.586;2023-08-24T03:37:26;13.50;;;8.30;;
80567;SDS011;69922;45.656;25.586;2023-08-24T03:38:29;11.00;;;8.40;;
80567;SDS011;69922;45.656;25.586;2023-08-24T03:39:34;11.20;;;8.40;;
80567;SDS011;69922;45.656;25.586;2023-08-24T03:40:39;12.80;;;8.60;;
80567;SDS011;69922;45.656;25.586;2023-08-24T03:41:43;11.40;;;9.20;;
80567;SDS011;69922;45.656;25.586;2023-08-24T03:42:46;14.20;;;9.20;;
80567;SDS011;69922;45.656;25.586;2023-08-24T03:43:50;13.50;;;9.70;;
80567;SDS011;69922;45.656;25.586;2023-08-24T03:44:54;13.20;;;7.90;;
80567;SDS011;69922;45.656;25.586;2023-08-24T03:45:57;14.80;;;9.10;;
80567;SDS011;69922;45.656;25.586;2023-08-24T03:47:01;16.00;;;9.80;;
80567;SDS011;69922;45.656;25.586;2023-08-24T03:48:06;15.70;;;10.20;;
80567;SDS011;69922;45.656;25.586;2023-08-24T03:49:09;15.60;;;9.30;;
80567;SDS011;69922;45.656;25.586;2023-08-24T03:50:13;15.50;;;10.00;;
80567;SDS011;69922;45.656;25.586;2023-08-24T03:51:17;13.20;;;8.40;;
80567;SDS011;69922;45.656;25.586;2023-08-24T03:52:21;13.60;;;9.20;;
80567;SDS011;69922;45.656;25.586;2023-08-24T03:53:24;15.30;;;9.40;;
80567;SDS011;69922;45.656;25.586;2023-08-24T03:54:28;15.30;;;9.70;;
80567;SDS011;69922;45.656;25.586;2023-08-24T03:55:32;12.90;;;9.40;;
80567;SDS011;69922;45.656;25.586;2023-08-24T03:56:36;20.60;;;9.40;;
80567;SDS011;69922;45.656;25.586;2023-08-24T03:57:39;13.00;;;8.40;;
80567;SDS011;69922;45.656;25.586;2023-08-24T03:58:42;11.70;;;8.80;;
80567;SDS011;69922;45.656;25.586;2023-08-24T03:59:46;12.00;;;8.30;;
80567;SDS011;69922;45.656;25.586;2023-08-24T04:00:49;12.70;;;8.40;;
80567;SDS011;69922;45.656;25.586;2023-08-24T04:01:53;13.70;;;7.90;;
80567;SDS011;69922;45.656;25.586;2023-08-24T04:02:56;12.30;;;8.80;;
80567;SDS011;69922;45.656;25.586;2023-08-24T04:04:01;11.80;;;8.30;;
80567;SDS011;69922;45.656;25.586;2023-08-24T04:05:05;11.00;;;7.80;;
80567;SDS011;69922;45.656;25.586;2023-08-24T04:06:09;11.90;;;8.70;;
80567;SDS011;69922;45.656;25.586;2023-08-24T04:07:13;12.50;;;8.60;;
80567;SDS011;69922;45.656;25.586;2023-08-24T04:08:16;12.60;;;8.50;;
80567;SDS011;69922;45.656;25.586;2023-08-24T04:09:20;12.90;;;7.90;;
80567;SDS011;69922;45.656;25.586;2023-08-24T04:10:24;11.70;;;8.50;;
80567;SDS011;69922;45.656;25.586;2023-08-24T04:11:28;14.60;;;8.70;;
80567;SDS011;69922;45.656;25.586;2023-08-24T04:12:31;15.10;;;8.40;;
80567;SDS011;69922;45.656;25.586;2023-08-24T04:13:35;15.60;;;8.70;;
80567;SDS011;69922;45.656;25.586;2023-08-24T04:14:38;18.60;;;9.30;;
80567;SDS011;69922;45.656;25.586;2023-08-24T04:15:43;20.20;;;9.00;;
80567;SDS011;69922;45.656;25.586;2023-08-24T04:16:47;13.40;;;9.40;;
80567;SDS011;69922;45.656;25.586;2023-08-24T04:17:50;13.30;;;9.10;;
80567;SDS011;69922;45.656;25.586;2023-08-24T04:18:54;13.90;;;9.30;;
80567;SDS011;69922;45.656;25.586;2023-08-24T04:19:58;12.80;;;8.50;;
80567;SDS011;69922;45.656;25.586;2023-08-24T04:21:01;12.60;;;9.40;;
80567;SDS011;69922;45.656;25.586;2023-08-24T04:22:07;15.50;;;8.90;;
80567;SDS011;69922;45.656;25.586;2023-08-24T04:23:12;12.50;;;8.40;;
80567;SDS011;69922;45.656;25.586;2023-08-24T04:24:15;12.10;;;8.80;;
80567;SDS011;69922;45.656;25.586;2023-08-24T04:25:19;17.40;;;9.70;;
80567;SDS011;69922;45.656;25.586;2023-08-24T04:26:23;15.10;;;8.70;;
80567;SDS011;69922;45.656;25.586;2023-08-24T04:27:26;14.10;;;9.20;;
80567;SDS011;69922;45.656;25.586;2023-08-24T04:28:30;14.80;;;9.00;;
80567;SDS011;69922;45.656;25.586;2023-08-24T04:29:41;12.70;;;8.20;;
80567;SDS011;69922;45.656;25.586;2023-08-24T04:30:49;16.40;;;8.70;;
80567;SDS011;69922;45.656;25.586;2023-08-24T04:31:53;10.40;;;8.00;;
80567;SDS011;69922;45.656;25.586;2023-08-24T04:32:56;14.40;;;8.10;;
80567;SDS011;69922;45.656;25.586;2023-08-24T04:34:02;14.30;;;8.70;;
80567;SDS011;69922;45.656;25.586;2023-08-24T04:35:08;10.50;;;8.30;;
80567;SDS011;69922;45.656;25.586;2023-08-24T04:36:12;12.80;;;8.60;;
80567;SDS011;69922;45.656;25.586;2023-08-24T04:37:16;14.50;;;8.60;;
80567;SDS011;69922;45.656;25.586;2023-08-24T04:38:20;13.20;;;8.60;;
80567;SDS011;69922;45.656;25.586;2023-08-24T04:39:24;15.00;;;9.50;;
80567;SDS011;69922;45.656;25.586;2023-08-24T04:40:29;12.80;;;9.20;;
80567;SDS011;69922;45.656;25.586;2023-08-24T04:41:33;15.40;;;8.40;;
80567;SDS011;69922;45.656;25.586;2023-08-24T04:42:37;12.40;;;8.50;;
80567;SDS011;69922;45.656;25.586;2023-08-24T04:43:40;16.20;;;9.30;;
80567;SDS011;69922;45.656;25.586;2023-08-24T04:44:43;11.70;;;8.60;;
80567;SDS011;69922;45.656;25.586;2023-08-24T04:45:47;10.50;;;7.60;;
80567;SDS011;69922;45.656;25.586;2023-08-24T04:46:52;14.50;;;7.90;;
80567;SDS011;69922;45.656;25.586;2023-08-24T04:47:55;10.70;;;8.00;;
80567;SDS011;69922;45.656;25.586;2023-08-24T04:48:59;14.40;;;9.90;;
80567;SDS011;69922;45.656;25.586;2023-08-24T04:50:03;13.90;;;9.50;;
80567;SDS011;69922;45.656;25.586;2023-08-24T04:51:08;14.60;;;9.30;;
80567;SDS011;69922;45.656;25.586;2023-08-24T04:52:12;18.10;;;9.50;;
80567;SDS011;69922;45.656;25.586;2023-08-24T04:53:16;12.20;;;8.50;;
80567;SDS011;69922;45.656;25.586;2023-08-24T04:54:22;13.50;;;8.30;;
80567;SDS011;69922;45.656;25.586;2023-08-24T04:55:26;15.50;;;9.50;;
80567;SDS011;69922;45.656;25.586;2023-08-24T04:56:30;12.50;;;8.20;;
80567;SDS011;69922;45.656;25.586;2023-08-24T04:57:33;14.50;;;8.70;;
80567;SDS011;69922;45.656;25.586;2023-08-24T04:58:36;17.20;;;8.70;;
80567;SDS011;69922;45.656;25.586;2023-08-24T04:59:40;12.00;;;8.60;;
80567;SDS011;69922;45.656;25.586;2023-08-24T05:00:47;14.30;;;8.20;;
80567;SDS011;69922;45.656;25.586;2023-08-24T05:01:51;11.80;;;9.00;;
80567;SDS011;69922;45.656;25.586;2023-08-24T05:02:55;10.30;;;8.10;;
80567;SDS011;69922;45.656;25.586;2023-08-24T05:03:58;13.10;;;9.30;;
80567;SDS011;69922;45.656;25.586;2023-08-24T05:05:02;12.20;;;8.50;;
80567;SDS011;69922;45.656;25.586;2023-08-24T05:06:08;13.50;;;9.40;;
80567;SDS011;69922;45.656;25.586;2023-08-24T05:07:11;13.10;;;8.90;;
80567;SDS011;69922;45.656;25.586;2023-08-24T05:08:15;11.90;;;9.60;;
80567;SDS011;69922;45.656;25.586;2023-08-24T05:09:18;15.90;;;9.20;;
80567;SDS011;69922;45.656;25.586;2023-08-24T05:10:21;12.70;;;9.60;;
80567;SDS011;69922;45.656;25.586;2023-08-24T05:11:26;12.20;;;8.80;;
80567;SDS011;69922;45.656;25.586;2023-08-24T05:12:33;11.50;;;8.50;;
80567;SDS011;69922;45.656;25.586;2023-08-24T05:13:38;11.40;;;8.60;;
80567;SDS011;69922;45.656;25.586;2023-08-24T05:14:41;12.60;;;8.40;;
80567;SDS011;69922;45.656;25.586;2023-08-24T05:15:45;10.80;;;7.70;;
80567;SDS011;69922;45.656;25.586;2023-08-24T05:16:50;10.80;;;8.00;;
80567;SDS011;69922;45.656;25.586;2023-08-24T05:17:53;14.40;;;9.30;;
80567;SDS011;69922;45.656;25.586;2023-08-24T05:18:58;14.60;;;8.40;;
80567;SDS011;69922;45.656;25.586;2023-08-24T05:20:02;12.90;;;8.80;;
80567;SDS011;69922;45.656;25.586;2023-08-24T05:22:14;12.40;;;8.60;;
80567;SDS011;69922;45.656;25.586;2023-08-24T05:23:18;14.70;;;9.20;;
80567;SDS011;69922;45.656;25.586;2023-08-24T05:24:22;14.10;;;9.30;;
80567;SDS011;69922;45.656;25.586;2023-08-24T05:25:26;14.60;;;9.20;;
80567;SDS011;69922;45.656;25.586;2023-08-24T05:26:29;13.00;;;9.20;;
80567;SDS011;69922;45.656;25.586;2023-08-24T05:27:33;12.40;;;8.50;;
80567;SDS011;69922;45.656;25.586;2023-08-24T05:28:36;13.00;;;9.50;;
80567;SDS011;69922;45.656;25.586;2023-08-24T05:29:40;9.60;;;8.40;;
80567;SDS011;69922;45.656;25.586;2023-08-24T05:30:44;12.20;;;9.20;;
80567;SDS011;69922;45.656;25.586;2023-08-24T05:31:47;14.00;;;8.60;;
80567;SDS011;69922;45.656;25.586;2023-08-24T05:32:51;12.30;;;9.50;;
80567;SDS011;69922;45.656;25.586;2023-08-24T05:33:54;16.20;;;9.30;;
80567;SDS011;69922;45.656;25.586;2023-08-24T05:34:58;10.40;;;8.30;;
80567;SDS011;69922;45.656;25.586;2023-08-24T05:36:02;15.20;;;9.70;;
80567;SDS011;69922;45.656;25.586;2023-08-24T05:37:06;18.50;;;10.60;;
80567;SDS011;69922;45.656;25.586;2023-08-24T05:38:10;12.60;;;9.80;;
80567;SDS011;69922;45.656;25.586;2023-08-24T05:39:15;12.10;;;9.00;;
80567;SDS011;69922;45.656;25.586;2023-08-24T05:40:18;14.70;;;9.60;;
80567;SDS011;69922;45.656;25.586;2023-08-24T05:41:22;16.30;;;10.30;;
80567;SDS011;69922;45.656;25.586;2023-08-24T05:42:26;14.60;;;10.00;;
80567;SDS011;69922;45.656;25.586;2023-08-24T05:43:30;12.60;;;9.10;;
80567;SDS011;69922;45.656;25.586;2023-08-24T05:44:33;12.80;;;8.70;;
80567;SDS011;69922;45.656;25.586;2023-08-24T05:45:37;14.00;;;9.50;;
80567;SDS011;69922;45.656;25.586;2023-08-24T05:46:43;14.40;;;10.10;;
80567;SDS011;69922;45.656;25.586;2023-08-24T05:47:46;12.70;;;8.70;;
80567;SDS011;69922;45.656;25.586;2023-08-24T05:48:50;12.60;;;9.50;;
80567;SDS011;69922;45.656;25.586;2023-08-24T05:49:54;12.90;;;11.00;;
80567;SDS011;69922;45.656;25.586;2023-08-24T05:50:57;13.20;;;10.20;;
80567;SDS011;69922;45.656;25.586;2023-08-24T05:52:01;12.60;;;9.90;;
80567;SDS011;69922;45.656;25.586;2023-08-24T05:53:05;14.40;;;10.00;;
80567;SDS011;69922;45.656;25.586;2023-08-24T05:54:08;15.10;;;10.50;;
80567;SDS011;69922;45.656;25.586;2023-08-24T05:55:11;11.30;;;9.10;;
80567;SDS011;69922;45.656;25.586;2023-08-24T05:56:15;11.90;;;9.10;;
80567;SDS011;69922;45.656;25.586;2023-08-24T05:57:18;11.90;;;8.30;;
80567;SDS011;69922;45.656;25.586;2023-08-24T05:58:22;12.40;;;9.50;;
80567;SDS011;69922;45.656;25.586;2023-08-24T05:59:26;13.00;;;9.80;;
80567;SDS011;69922;45.656;25.586;2023-08-24T06:00:29;13.00;;;9.30;;
80567;SDS011;69922;45.656;25.586;2023-08-24T06:01:33;10.80;;;8.70;;
80567;SDS011;69922;45.656;25.586;2023-08-24T06:02:40;14.10;;;10.00;;
80567;SDS011;69922;45.656;25.586;2023-08-24T06:03:44;13.90;;;9.70;;
80567;SDS011;69922;45.656;25.586;2023-08-24T06:04:48;13.40;;;10.10;;
80567;SDS011;69922;45.656;25.586;2023-08-24T06:05:52;14.00;;;9.50;;
80567;SDS011;69922;45.656;25.586;2023-08-24T06:07:03;12.60;;;9.10;;
80567;SDS011;69922;45.656;25.586;2023-08-24T06:08:07;11.80;;;9.20;;
80567;SDS011;69922;45.656;25.586;2023-08-24T06:09:12;18.80;;;14.40;;
80567;SDS011;69922;45.656;25.586;2023-08-24T06:10:17;13.30;;;10.70;;
80567;SDS011;69922;45.656;25.586;2023-08-24T06:11:21;18.40;;;12.80;;
80567;SDS011;69922;45.656;25.586;2023-08-24T06:12:25;13.90;;;9.90;;
80567;SDS011;69922;45.656;25.586;2023-08-24T06:13:29;13.20;;;9.40;;
80567;SDS011;69922;45.656;25.586;2023-08-24T06:14:33;12.60;;;9.90;;
80567;SDS011;69922;45.656;25.586;2023-08-24T06:15:36;12.70;;;9.60;;
80567;SDS011;69922;45.656;25.586;2023-08-24T06:16:40;11.40;;;10.20;;
80567;SDS011;69922;45.656;25.586;2023-08-24T06:17:43;12.80;;;9.90;;